createdAt,value
2022-08-31T00:00:40.816Z,100689.47
2022-08-31T00:03:28.118Z,100688.59
2022-08-31T00:06:04.147Z,100686.63
2022-08-31T00:08:33.647Z,100681.22
2022-08-31T00:11:01.928Z,100684.91
2022-08-31T00:13:30.308Z,100688.34
2022-08-31T00:15:58.866Z,100692.75
2022-08-31T00:18:27.975Z,100695.47
2022-08-31T00:20:56.236Z,100707.50
2022-08-31T00:23:26.367Z,100700.66
2022-08-31T00:25:54.706Z,100695.53
2022-08-31T00:28:23.046Z,100701.19
2022-08-31T00:30:51.436Z,100697.81
2022-08-31T00:33:19.803Z,100697.69
2022-08-31T00:35:48.167Z,100687.63
2022-08-31T00:38:16.705Z,100676.81
2022-08-31T00:40:47.132Z,100675.09
2022-08-31T00:43:35.700Z,100671.41
2022-08-31T00:46:04.551Z,100668.97
2022-08-31T00:48:34.271Z,100668.72
2022-08-31T00:51:02.890Z,100668.72
2022-08-31T00:53:31.560Z,100671.66
2022-08-31T00:56:00.024Z,100672.66
2022-08-31T00:58:28.803Z,100671.41
2022-08-31T01:00:59.564Z,100673.97
2022-08-31T01:03:28.020Z,100673.84
2022-08-31T01:05:56.323Z,100678.28
2022-08-31T01:08:30.668Z,100680.97
2022-08-31T01:11:00.250Z,100683.94
2022-08-31T01:13:30.921Z,100682.47
2022-08-31T01:16:04.546Z,100688.72
2022-08-31T01:18:34.771Z,100692.75
2022-08-31T01:21:05.460Z,100684.28
2022-08-31T01:23:39.090Z,100692.03
2022-08-31T01:26:09.026Z,100681.69
2022-08-31T01:28:37.561Z,100688.34
2022-08-31T01:31:06.058Z,100687.88
2022-08-31T01:33:38.301Z,100681.75
2022-08-31T01:36:11.014Z,100694.13
2022-08-31T01:38:42.481Z,100691.84
2022-08-31T01:41:14.531Z,100696.97
2022-08-31T01:43:43.090Z,100700.94
2022-08-31T01:46:13.550Z,100700.22
2022-08-31T01:48:44.003Z,100703.44
2022-08-31T01:51:16.230Z,100706.59
2022-08-31T01:53:48.426Z,100695.53
2022-08-31T01:56:21.932Z,100696.53
2022-08-31T01:58:50.950Z,100695.25
2022-08-31T02:01:39.162Z,100690.31
2022-08-31T02:04:09.077Z,100683.34
2022-08-31T02:06:41.048Z,100687.16
2022-08-31T02:09:10.322Z,100682.59
2022-08-31T02:11:39.067Z,100685.00
2022-08-31T02:14:08.691Z,100678.34
2022-08-31T02:16:38.596Z,100685.47
2022-08-31T02:19:08.915Z,100688.94
2022-08-31T02:21:37.963Z,100688.94
2022-08-31T02:24:07.000Z,100677.63
2022-08-31T02:26:35.500Z,100687.22
2022-08-31T02:29:07.731Z,100676.91
2022-08-31T02:31:36.597Z,100682.28
2022-08-31T02:34:05.701Z,100686.91
2022-08-31T02:36:35.752Z,100675.91
2022-08-31T02:39:07.087Z,100677.63
2022-08-31T02:41:36.391Z,100685.25
2022-08-31T02:44:05.368Z,100677.16
2022-08-31T02:46:34.937Z,100686.72
2022-08-31T02:49:33.559Z,100683.53
2022-08-31T02:52:03.001Z,100683.41
2022-08-31T02:54:31.380Z,100681.94
2022-08-31T02:57:00.979Z,100677.88
2022-08-31T02:59:29.632Z,100679.13
2022-08-31T03:01:59.388Z,100675.06
2022-08-31T03:04:28.942Z,100685.00
2022-08-31T03:06:57.503Z,100680.59
2022-08-31T03:09:25.904Z,100685.25
2022-08-31T03:11:54.442Z,100692.63
2022-08-31T03:14:22.822Z,100696.31
2022-08-31T03:16:54.123Z,100694.34
2022-08-31T03:19:22.510Z,100700.75
2022-08-31T03:21:55.802Z,100698.50
2022-08-31T03:24:27.222Z,100695.09
2022-08-31T03:26:58.523Z,100697.84
2022-08-31T03:29:26.991Z,100700.53
2022-08-31T03:31:55.372Z,100700.59
2022-08-31T03:34:25.220Z,100709.44
2022-08-31T03:36:53.480Z,100701.09
2022-08-31T03:39:21.801Z,100704.53
2022-08-31T03:41:50.410Z,100710.78
2022-08-31T03:44:21.991Z,100709.19
2022-08-31T03:46:51.258Z,100714.50
2022-08-31T03:49:20.710Z,100715.44
2022-08-31T03:52:06.203Z,100712.41
2022-08-31T03:54:44.141Z,100713.66
2022-08-31T03:57:13.760Z,100708.13
2022-08-31T03:59:42.231Z,100718.69
2022-08-31T04:02:20.025Z,100715.13
2022-08-31T04:05:18.291Z,100715.31
2022-08-31T04:08:05.431Z,100702.56
2022-08-31T04:10:48.360Z,100702.56
2022-08-31T04:13:36.711Z,100700.59
2022-08-31T04:16:33.650Z,100707.34
2022-08-31T04:19:38.631Z,100710.44
2022-08-31T04:22:24.675Z,100710.91
2022-08-31T04:25:17.532Z,100711.88
2022-08-31T04:27:50.683Z,100712.25
2022-08-31T04:30:21.651Z,100717.03
2022-08-31T04:32:50.679Z,100713.22
2022-08-31T04:35:19.063Z,100708.56
2022-08-31T04:37:47.682Z,100716.97
2022-08-31T04:40:23.569Z,100719.44
2022-08-31T04:42:55.551Z,100722.13
2022-08-31T04:45:25.452Z,100716.97
2022-08-31T04:47:54.261Z,100717.97
2022-08-31T04:50:22.854Z,100716.13
2022-08-31T04:53:11.281Z,100712.56
2022-08-31T04:55:43.802Z,100726.78
2022-08-31T04:58:14.381Z,100725.09
2022-08-31T05:00:44.323Z,100728.50
2022-08-31T05:03:40.490Z,100727.53
2022-08-31T05:06:15.645Z,100736.50
2022-08-31T05:08:44.787Z,100736.09
2022-08-31T05:11:16.446Z,100733.66
2022-08-31T05:13:45.495Z,100738.81
2022-08-31T05:16:16.497Z,100740.78
2022-08-31T05:18:47.077Z,100741.63
2022-08-31T05:21:32.265Z,100743.22
2022-08-31T05:24:06.843Z,100738.81
2022-08-31T05:26:42.073Z,100749.34
2022-08-31T05:29:14.757Z,100745.69
2022-08-31T05:31:48.036Z,100747.38
2022-08-31T05:34:19.772Z,100749.34
2022-08-31T05:36:52.758Z,100745.81
2022-08-31T05:39:21.895Z,100749.34
2022-08-31T05:41:50.546Z,100745.94
2022-08-31T05:44:22.865Z,100753.41
2022-08-31T05:47:03.956Z,100751.56
2022-08-31T05:49:36.130Z,100745.69
2022-08-31T05:52:05.678Z,100754.13
2022-08-31T05:54:36.595Z,100757.34
2022-08-31T05:57:07.307Z,100755.38
2022-08-31T05:59:35.877Z,100758.81
2022-08-31T06:02:05.410Z,100761.66
2022-08-31T06:04:35.546Z,100762.97
2022-08-31T06:07:03.846Z,100757.59
2022-08-31T06:09:46.715Z,100762.72
2022-08-31T06:12:23.136Z,100769.13
2022-08-31T06:14:53.446Z,100774.41
2022-08-31T06:17:24.528Z,100767.38
2022-08-31T06:19:53.586Z,100773.13
2022-08-31T06:22:22.106Z,100773.25
2022-08-31T06:24:51.527Z,100768.97
2022-08-31T06:27:20.105Z,100766.59
2022-08-31T06:29:49.720Z,100778.41
2022-08-31T06:32:18.037Z,100781.06
2022-08-31T06:34:56.316Z,100785.69
2022-08-31T06:37:45.554Z,100777.22
2022-08-31T06:40:50.001Z,100772.97
2022-08-31T06:43:53.876Z,100766.09
2022-08-31T06:46:39.629Z,100775.25
2022-08-31T06:49:20.867Z,100772.22
2022-08-31T06:51:51.036Z,100779.28
2022-08-31T06:54:35.500Z,100773.97
2022-08-31T06:57:42.596Z,100780.00
2022-08-31T07:00:35.496Z,100784.84
2022-08-31T07:03:33.461Z,100780.94
2022-08-31T07:06:09.434Z,100786.50
2022-08-31T07:08:40.776Z,100786.31
2022-08-31T07:11:15.553Z,100785.88
2022-08-31T07:13:44.196Z,100775.03
2022-08-31T07:16:16.166Z,100781.09
2022-08-31T07:21:53.973Z,100776.63
2022-08-31T07:24:26.003Z,100770.97
2022-08-31T07:27:10.315Z,100783.03
2022-08-31T07:29:51.153Z,100783.78
2022-08-31T07:32:20.894Z,100785.56
2022-08-31T07:34:58.468Z,100788.38
2022-08-31T07:38:03.756Z,100791.63
2022-08-31T07:40:53.660Z,100787.59
2022-08-31T07:43:24.394Z,100791.63
2022-08-31T07:45:53.524Z,100795.97
2022-08-31T07:48:26.153Z,100794.75
2022-08-31T07:51:18.152Z,100805.00
2022-08-31T07:53:59.410Z,100810.91
2022-08-31T07:56:53.021Z,100805.22
2022-08-31T07:59:23.753Z,100816.09
2022-08-31T08:01:56.666Z,100806.75
2022-08-31T08:04:26.505Z,100805.44
2022-08-31T08:07:06.140Z,100807.56
2022-08-31T08:10:07.163Z,100806.22
2022-08-31T08:13:04.959Z,100808.41
2022-08-31T08:15:56.742Z,100805.44
2022-08-31T08:18:48.652Z,100804.75
2022-08-31T08:21:21.291Z,100804.75
2022-08-31T08:23:49.773Z,100809.84
2022-08-31T08:26:54.067Z,100811.75
2022-08-31T08:29:56.394Z,100815.38
2022-08-31T08:32:31.883Z,100815.91
2022-08-31T08:35:00.950Z,100820.53
2022-08-31T08:37:47.792Z,100818.38
2022-08-31T08:40:39.927Z,100813.81
2022-08-31T08:43:11.732Z,100818.94
2022-08-31T08:45:41.058Z,100811.88
2022-08-31T08:48:12.975Z,100807.94
2022-08-31T08:50:43.605Z,100811.66
2022-08-31T08:53:22.617Z,100809.47
2022-08-31T08:56:23.184Z,100808.53
2022-08-31T08:58:49.955Z,100797.78
2022-08-31T09:01:27.551Z,100803.28
2022-08-31T09:04:12.077Z,100795.47
2022-08-31T09:07:23.294Z,100798.78
2022-08-31T09:10:03.224Z,100803.28
2022-08-31T09:13:02.873Z,100816.13
2022-08-31T09:15:39.805Z,100812.22
2022-08-31T09:18:26.499Z,100811.00
2022-08-31T09:21:21.010Z,100799.00
2022-08-31T09:23:59.834Z,100804.41
2022-08-31T09:26:35.982Z,100796.44
2022-08-31T09:29:24.924Z,100799.00
2022-08-31T09:32:06.135Z,100793.88
2022-08-31T09:34:38.135Z,100787.97
2022-08-31T09:37:21.655Z,100788.22
2022-08-31T09:39:52.808Z,100778.78
2022-08-31T09:42:32.140Z,100770.94
2022-08-31T09:45:09.955Z,100768.88
2022-08-31T09:47:58.553Z,100762.88
2022-08-31T09:50:45.404Z,100765.53
2022-08-31T09:53:45.402Z,100760.06
2022-08-31T09:56:20.111Z,100758.31
2022-08-31T09:58:51.995Z,100752.31
2022-08-31T10:01:32.287Z,100756.59
2022-08-31T10:04:21.189Z,100739.91
2022-08-31T10:07:19.979Z,100739.44
2022-08-31T10:09:56.391Z,100745.59
2022-08-31T10:12:39.078Z,100728.41
2022-08-31T10:15:22.001Z,100732.81
2022-08-31T10:18:03.317Z,100734.03
2022-08-31T10:20:38.609Z,100734.91
2022-08-31T10:23:35.247Z,100726.69
2022-08-31T10:26:19.887Z,100723.75
2022-08-31T10:28:56.588Z,100716.66
2022-08-31T10:31:48.092Z,100708.41
2022-08-31T10:34:44.297Z,100696.28
2022-08-31T10:37:31.768Z,100683.00
2022-08-31T10:40:25.120Z,100690.50
2022-08-31T10:43:09.544Z,100680.31
2022-08-31T10:45:43.021Z,100671.97
2022-08-31T10:48:13.307Z,100672.69
2022-08-31T10:51:02.806Z,100670.53
2022-08-31T10:53:52.458Z,100670.09
2022-08-31T10:56:45.218Z,100673.59
2022-08-31T10:59:35.070Z,100663.13
2022-08-31T11:02:26.708Z,100664.97
2022-08-31T11:05:02.298Z,100681.03
2022-08-31T11:07:48.496Z,100674.84
2022-08-31T11:10:20.328Z,100680.47
2022-08-31T11:12:57.463Z,100666.56
2022-08-31T11:15:44.742Z,100669.53
2022-08-31T11:19:20.537Z,100671.16
2022-08-31T11:22:14.269Z,100675.47
2022-08-31T11:25:25.236Z,100675.69
2022-08-31T11:28:07.324Z,100660.19
2022-08-31T11:30:43.301Z,100677.53
2022-08-31T11:33:21.208Z,100670.31
2022-08-31T11:35:50.036Z,100671.28
2022-08-31T11:38:52.368Z,100673.69
2022-08-31T11:41:34.436Z,100671.16
2022-08-31T11:44:04.902Z,100660.28
2022-08-31T11:46:34.377Z,100666.13
2022-08-31T11:49:02.766Z,100661.47
2022-08-31T11:51:43.484Z,100654.84
2022-08-31T11:54:42.366Z,100645.22
2022-08-31T11:57:18.034Z,100631.28
2022-08-31T11:59:51.084Z,100638.00
2022-08-31T12:02:25.867Z,100633.44
2022-08-31T12:04:57.792Z,100628.97
2022-08-31T12:07:45.787Z,100635.56
2022-08-31T12:10:27.574Z,100643.97
2022-08-31T12:13:23.307Z,100652.41
2022-08-31T12:16:01.486Z,100652.88
2022-08-31T12:18:39.407Z,100650.19
2022-08-31T12:21:58.275Z,100652.41
2022-08-31T12:24:49.458Z,100652.47
2022-08-31T12:27:44.454Z,100641.69
2022-08-31T12:30:25.576Z,100640.88
2022-08-31T12:33:18.605Z,100641.66
2022-08-31T12:35:49.697Z,100635.84
2022-08-31T12:38:20.725Z,100631.59
2022-08-31T12:40:52.408Z,100628.31
2022-08-31T12:43:33.122Z,100634.84
2022-08-31T12:46:29.640Z,100622.16
2022-08-31T12:49:16.245Z,100623.31
2022-08-31T12:52:22.318Z,100621.47
2022-08-31T12:55:23.613Z,100614.78
2022-08-31T12:57:59.165Z,100603.38
2022-08-31T13:00:30.405Z,100619.72
2022-08-31T13:03:26.329Z,100618.47
2022-08-31T13:06:08.641Z,100604.72
2022-08-31T13:08:45.731Z,100602.53
2022-08-31T13:11:23.852Z,100595.63
2022-08-31T13:14:14.077Z,100596.63
2022-08-31T13:16:48.889Z,100590.75
2022-08-31T13:19:25.993Z,100591.00
2022-08-31T13:22:32.825Z,100586.69
2022-08-31T13:25:37.475Z,100576.16
2022-08-31T13:28:33.345Z,100581.03
2022-08-31T13:31:09.673Z,100580.13
2022-08-31T13:33:42.964Z,100571.75
2022-08-31T13:36:34.582Z,100555.63
2022-08-31T13:39:17.105Z,100558.94
2022-08-31T13:42:28.736Z,100558.53
2022-08-31T13:45:01.326Z,100547.63
2022-08-31T13:47:32.615Z,100544.91
2022-08-31T13:50:13.376Z,100542.59
2022-08-31T13:53:16.118Z,100540.63
2022-08-31T13:55:43.912Z,100534.06
2022-08-31T13:58:31.237Z,100542.13
2022-08-31T14:01:20.822Z,100534.13
2022-08-31T14:03:58.432Z,100531.31
2022-08-31T14:06:34.138Z,100536.19
2022-08-31T14:09:16.846Z,100533.41
2022-08-31T14:12:05.722Z,100545.72
2022-08-31T14:14:43.438Z,100540.13
2022-08-31T14:17:16.655Z,100536.56
2022-08-31T14:19:45.706Z,100531.81
2022-08-31T14:22:31.786Z,100532.00
2022-08-31T14:25:01.177Z,100527.88
2022-08-31T14:27:30.648Z,100521.09
2022-08-31T14:29:58.704Z,100521.94
2022-08-31T14:32:29.699Z,100530.50
2022-08-31T14:34:59.512Z,100525.19
2022-08-31T14:37:30.553Z,100520.22
2022-08-31T14:40:05.500Z,100517.50
2022-08-31T14:42:38.557Z,100518.47
2022-08-31T14:45:18.942Z,100503.56
2022-08-31T14:47:52.520Z,100517.38
2022-08-31T14:50:25.626Z,100515.94
2022-08-31T14:52:55.810Z,100515.25
2022-08-31T14:55:26.200Z,100516.09
2022-08-31T14:58:01.866Z,100518.69
2022-08-31T15:00:32.253Z,100517.81
2022-08-31T15:03:02.700Z,100514.41
2022-08-31T15:05:32.771Z,100515.84
2022-08-31T15:08:01.312Z,100517.25
2022-08-31T15:10:29.419Z,100513.53
2022-08-31T15:12:57.567Z,100517.41
2022-08-31T15:15:26.096Z,100512.69
2022-08-31T15:17:54.447Z,100509.16
2022-08-31T15:20:23.420Z,100505.44
2022-08-31T15:22:52.959Z,100501.88
2022-08-31T15:25:23.621Z,100504.28
2022-08-31T15:27:51.902Z,100500.44
2022-08-31T15:30:20.549Z,100493.63
2022-08-31T15:32:49.037Z,100488.78
2022-08-31T15:35:21.008Z,100488.50
2022-08-31T15:37:57.497Z,100491.22
2022-08-31T15:40:29.210Z,100487.34
2022-08-31T15:42:58.817Z,100483.09
2022-08-31T15:45:31.009Z,100483.81
2022-08-31T15:48:18.692Z,100476.53
2022-08-31T15:50:53.968Z,100483.69
2022-08-31T15:53:24.106Z,100477.41
2022-08-31T15:55:52.228Z,100485.66
2022-08-31T15:58:24.926Z,100483.81
2022-08-31T16:00:53.857Z,100482.09
2022-08-31T16:03:22.201Z,100477.13
2022-08-31T16:05:50.310Z,100471.13
2022-08-31T16:08:19.768Z,100471.97
2022-08-31T16:10:48.227Z,100473.53
2022-08-31T16:13:16.520Z,100474.97
2022-08-31T16:15:51.417Z,100474.28
2022-08-31T16:18:22.155Z,100462.88
2022-08-31T16:20:52.102Z,100469.13
2022-08-31T16:23:21.609Z,100462.44
2022-08-31T16:25:50.041Z,100460.03
2022-08-31T16:28:21.046Z,100451.78
2022-08-31T16:30:51.173Z,100460.03
2022-08-31T16:33:20.992Z,100457.19
2022-08-31T16:35:49.929Z,100460.03
2022-08-31T16:38:19.509Z,100461.03
2022-08-31T16:40:49.070Z,100471.59
2022-08-31T16:43:17.227Z,100463.75
2022-08-31T16:45:45.620Z,100481.41
2022-08-31T16:48:32.577Z,100479.13
2022-08-31T16:51:02.542Z,100487.06
2022-08-31T16:53:31.947Z,100497.16
2022-08-31T16:56:03.816Z,100493.59
2022-08-31T16:58:51.140Z,100495.25
2022-08-31T17:01:23.451Z,100495.50
2022-08-31T17:03:59.935Z,100494.34
2022-08-31T17:06:31.534Z,100494.59
2022-08-31T17:09:05.076Z,100494.91
2022-08-31T17:11:49.398Z,100498.59
2022-08-31T17:14:24.148Z,100498.72
2022-08-31T17:16:53.011Z,100494.47
2022-08-31T17:19:26.585Z,100502.09
2022-08-31T17:21:54.754Z,100499.53
2022-08-31T17:24:26.809Z,100507.38
2022-08-31T17:26:59.957Z,100513.00
2022-08-31T17:29:32.356Z,100511.44
2022-08-31T17:32:05.118Z,100523.34
2022-08-31T17:34:35.080Z,100525.03
2022-08-31T17:37:09.255Z,100525.31
2022-08-31T17:39:37.567Z,100523.78
2022-08-31T17:42:06.221Z,100532.72
2022-08-31T17:44:34.926Z,100523.22
2022-08-31T17:47:03.900Z,100530.28
2022-08-31T17:49:36.599Z,100528.56
2022-08-31T17:52:08.158Z,100526.59
2022-08-31T17:54:42.296Z,100529.69
2022-08-31T17:57:13.637Z,100531.78
2022-08-31T17:59:46.641Z,100522.13
2022-08-31T18:02:21.936Z,100526.66
2022-08-31T18:04:52.571Z,100530.19
2022-08-31T18:07:21.669Z,100531.41
2022-08-31T18:09:50.070Z,100532.53
2022-08-31T18:12:22.283Z,100522.72
2022-08-31T18:14:50.838Z,100531.78
2022-08-31T18:17:22.530Z,100532.59
2022-08-31T18:19:50.910Z,100532.91
2022-08-31T18:22:19.998Z,100540.88
2022-08-31T18:24:48.211Z,100544.63
2022-08-31T18:27:16.739Z,100540.88
2022-08-31T18:29:45.834Z,100537.59
2022-08-31T18:32:14.609Z,100527.25
2022-08-31T18:34:47.659Z,100536.59
2022-08-31T18:37:22.300Z,100542.59
2022-08-31T18:40:09.691Z,100549.78
2022-08-31T18:42:57.185Z,100565.41
2022-08-31T18:45:28.048Z,100559.59
2022-08-31T18:50:48.647Z,100561.59
2022-08-31T18:53:28.733Z,100552.91
2022-08-31T18:56:10.028Z,100564.00
2022-08-31T18:58:39.103Z,100567.25
2022-08-31T19:01:10.809Z,100565.44
2022-08-31T19:03:41.329Z,100571.41
2022-08-31T19:06:18.987Z,100576.28
2022-08-31T19:08:48.160Z,100574.81
2022-08-31T19:11:27.390Z,100579.47
2022-08-31T19:13:57.108Z,100575.69
2022-08-31T19:16:29.258Z,100569.00
